Lepus — DSQX4 — position and weather

sailwx.info

Track history (hours):
 
Tides and Currents Weather Stations Pressure Air Temp Water Temp Dewpoint Dewpoint Depression Visibility Wind Speed Wind Dir Waves Ship Positions

Lepus

Last reported at 2017-Oct-14 17:26 UTC. Time now 2017-Oct-22 17:07 UTC.
Position N 34°33' E 134°46'.

Length 109 m; draft 6.7 m.

Type: Cargo ship. MMSI: 441745000.

Date/timePositionNaut miles runAvg speedWind from/ knotsBaromVisibWave heightAir tempDewpointWater temp
2017-Oct-14 17:26N 34°33' E 134°46'510.3
2017-Oct-14 16:59N 34°35' E 134°51'5 9.8
2017-Oct-14 16:30N 34°36' E 134°56'4 8.7
2017-Oct-14 16:00N 34°37' E 135°01'4 7.3
2017-Oct-14 15:30N 34°36' E 135°05'5 9.3
2017-Oct-14 15:00N 34°36' E 135°11'510.0
2017-Oct-14 14:30N 34°36' E 135°17'5 9.8
2017-Oct-14 14:00N 34°38' E 135°22'4 7.1
2017-Oct-14 13:30N 34°38' E 135°27'0 0.6
2017-Oct-14 12:49N 34°38' E 135°27'0 0.0
2017-Oct-14 12:25N 34°38' E 135°27'0 0.0
2017-Oct-14 11:55N 34°38' E 135°27'0 0.0
2017-Oct-14 11:13N 34°38' E 135°27'0 0.0
2017-Oct-14 10:55N 34°38' E 135°27'0 0.0
2017-Oct-14 10:19N 34°38' E 135°27'0 0.0
2017-Oct-14 09:55N 34°38' E 135°27'0 0.0
2017-Oct-14 09:19N 34°38' E 135°27'0 0.0
2017-Oct-14 08:49N 34°38' E 135°27'0 0.1
2017-Oct-14 08:19N 34°38' E 135°27'0 0.1
2017-Oct-14 07:55N 34°38' E 135°27'0 0.0
2017-Oct-14 07:25N 34°38' E 135°27'0 0.0
2017-Oct-14 06:55N 34°38' E 135°27'0 0.1
2017-Oct-14 06:25N 34°38' E 135°27'0 0.1
2017-Oct-14 05:55N 34°38' E 135°27'0 0.0
2017-Oct-14 05:25N 34°38' E 135°27'0 0.0
2017-Oct-14 04:55N 34°38' E 135°27'0 0.0
2017-Oct-14 04:25N 34°38' E 135°27'0 0.0
2017-Oct-14 03:49N 34°38' E 135°27'0 0.0
2017-Oct-14 03:25N 34°38' E 135°27'0 0.1
2017-Oct-14 02:43N 34°38' E 135°27'0 0.0
2017-Oct-14 02:25N 34°38' E 135°27'0 0.1
2017-Oct-14 01:55N 34°38' E 135°27'0 0.0
2017-Oct-14 01:25N 34°38' E 135°27'0 0.1
2017-Oct-14 00:55N 34°38' E 135°27'0 0.0
2017-Oct-14 00:19N 34°38' E 135°27'0 0.1
2017-Oct-13 23:49N 34°38' E 135°27'0 0.1
2017-Oct-13 23:19N 34°38' E 135°27'0 0.0
2017-Oct-13 22:55N 34°38' E 135°27'1 2.9
2017-Oct-13 22:30N 34°39' E 135°26'3 5.8
2017-Oct-13 21:59N 34°38' E 135°23'0 0.1
2017-Oct-13 21:27N 34°37' E 135°23'0 0.0
2017-Oct-13 20:57N 34°37' E 135°23'0 0.0
2017-Oct-13 20:21N 34°37' E 135°23'0 0.0
2017-Oct-13 19:57N 34°37' E 135°23'0 0.0
2017-Oct-13 19:15N 34°37' E 135°23'0 0.0
2017-Oct-13 18:51N 34°37' E 135°23'0 0.0
2017-Oct-13 18:27N 34°37' E 135°23'0 0.0
2017-Oct-13 17:57N 34°37' E 135°23'0 0.0
2017-Oct-13 17:21N 34°37' E 135°23'0 0.0
2017-Oct-13 16:57N 34°37' E 135°23'0 0.0
2017-Oct-13 16:21N 34°37' E 135°23'0 0.0
2017-Oct-13 15:45N 34°37' E 135°23'0 0.0
2017-Oct-13 15:15N 34°37' E 135°23'0 0.0
2017-Oct-13 14:51N 34°37' E 135°23'0 0.0
2017-Oct-13 14:27N 34°37' E 135°23'0 0.0
2017-Oct-13 13:51N 34°37' E 135°23'0 0.0
2017-Oct-13 13:21N 34°37' E 135°23'0 0.0
2017-Oct-13 12:51N 34°37' E 135°23'0 0.0
2017-Oct-13 12:27N 34°37' E 135°23'0 0.0
2017-Oct-13 11:51N 34°37' E 135°23'0 0.0
2017-Oct-13 11:27N 34°37' E 135°23'0 0.0
2017-Oct-13 10:03N 34°37' E 135°23'0 0.0
2017-Oct-13 09:45N 34°37' E 135°23'0 0.0
2017-Oct-13 09:27N 34°37' E 135°23'0 0.0
2017-Oct-13 08:39N 34°37' E 135°23'0 0.0
2017-Oct-13 08:21N 34°37' E 135°23'0 0.0
2017-Oct-13 07:39N 34°37' E 135°23'0 0.0
2017-Oct-13 07:09N 34°37' E 135°23'0 0.0
2017-Oct-13 05:51N 34°37' E 135°23'0 0.0
2017-Oct-13 05:21N 34°37' E 135°23'0 0.0
2017-Oct-13 04:51N 34°37' E 135°23'0 0.0
2017-Oct-13 04:21N 34°37' E 135°23'0 0.0
2017-Oct-13 03:57N 34°37' E 135°23'0 0.0
2017-Oct-13 03:15N 34°37' E 135°23'0 0.0
2017-Oct-13 02:51N 34°37' E 135°23'0 0.0
2017-Oct-13 02:27N 34°37' E 135°23'0 0.0
2017-Oct-13 01:51N 34°37' E 135°23'0 0.0
2017-Oct-13 01:27N 34°37' E 135°23'0 0.0
2017-Oct-13 00:57N 34°37' E 135°23'0 0.0
2017-Oct-12 23:51N 34°37' E 135°23'0 0.0
2017-Oct-12 23:27N 34°37' E 135°23'0 0.0
2017-Oct-12 22:57N 34°37' E 135°23'0 0.0
2017-Oct-12 22:21N 34°37' E 135°23'0 0.0
2017-Oct-12 21:39N 34°37' E 135°23'0 0.0
2017-Oct-12 21:27N 34°37' E 135°23'0 0.0
2017-Oct-12 20:57N 34°37' E 135°23'0 0.0
2017-Oct-12 20:09N 34°37' E 135°23'0 0.0
2017-Oct-12 19:57N 34°37' E 135°23'0 0.0
2017-Oct-12 19:27N 34°37' E 135°23'0 0.0
2017-Oct-12 18:57N 34°37' E 135°23'0 0.0
2017-Oct-12 18:27N 34°37' E 135°23'1 1.2
2017-Oct-12 18:00N 34°37' E 135°22'4 8.1
2017-Oct-12 17:30N 34°34' E 135°19'5 9.5
2017-Oct-12 17:00N 34°31' E 135°15'5 9.4
2017-Oct-12 16:30N 34°27' E 135°11'5 9.6
2017-Oct-12 16:00N 34°24' E 135°07'510.0
2017-Oct-12 15:28N 34°20' E 135°03'5 9.5
2017-Oct-12 14:59N 34°16' E 134°59'510.3
2017-Oct-12 14:30N 34°11' E 135°00'611.2
2017-Oct-12 14:00N 34°06' E 135°01'510.6
2017-Oct-12 13:30N 34°01' E 135°01'  
Track history (hours):
 
Tides and Currents Weather Stations Pressure Air Temp Water Temp Dewpoint Dewpoint Depression Visibility Wind Speed Wind Dir Waves Ship Positions

Lepus

Last reported at 2017-Oct-14 17:26 UTC. Time now 2017-Oct-22 17:07 UTC.
Position N 34°33' E 134°46'.

Length 109 m; draft 6.7 m.

Type: Cargo ship. MMSI: 441745000.

Date/timePositionNaut miles runAvg speedWind from/ knotsBaromVisibWave heightAir tempDewpointWater temp
2017-Oct-14 17:26N 34°33' E 134°46'510.3
2017-Oct-14 16:59N 34°35' E 134°51'5 9.8
2017-Oct-14 16:30N 34°36' E 134°56'4 8.7
2017-Oct-14 16:00N 34°37' E 135°01'4 7.3
2017-Oct-14 15:30N 34°36' E 135°05'5 9.3
2017-Oct-14 15:00N 34°36' E 135°11'510.0
2017-Oct-14 14:30N 34°36' E 135°17'5 9.8
2017-Oct-14 14:00N 34°38' E 135°22'4 7.1
2017-Oct-14 13:30N 34°38' E 135°27'0 0.6
2017-Oct-14 12:49N 34°38' E 135°27'0 0.0
2017-Oct-14 12:25N 34°38' E 135°27'0 0.0
2017-Oct-14 11:55N 34°38' E 135°27'0 0.0
2017-Oct-14 11:13N 34°38' E 135°27'0 0.0
2017-Oct-14 10:55N 34°38' E 135°27'0 0.0
2017-Oct-14 10:19N 34°38' E 135°27'0 0.0
2017-Oct-14 09:55N 34°38' E 135°27'0 0.0
2017-Oct-14 09:19N 34°38' E 135°27'0 0.0
2017-Oct-14 08:49N 34°38' E 135°27'0 0.1
2017-Oct-14 08:19N 34°38' E 135°27'0 0.1
2017-Oct-14 07:55N 34°38' E 135°27'0 0.0
2017-Oct-14 07:25N 34°38' E 135°27'0 0.0
2017-Oct-14 06:55N 34°38' E 135°27'0 0.1
2017-Oct-14 06:25N 34°38' E 135°27'0 0.1
2017-Oct-14 05:55N 34°38' E 135°27'0 0.0
2017-Oct-14 05:25N 34°38' E 135°27'0 0.0
2017-Oct-14 04:55N 34°38' E 135°27'0 0.0
2017-Oct-14 04:25N 34°38' E 135°27'0 0.0
2017-Oct-14 03:49N 34°38' E 135°27'0 0.0
2017-Oct-14 03:25N 34°38' E 135°27'0 0.1
2017-Oct-14 02:43N 34°38' E 135°27'0 0.0
2017-Oct-14 02:25N 34°38' E 135°27'0 0.1
2017-Oct-14 01:55N 34°38' E 135°27'0 0.0
2017-Oct-14 01:25N 34°38' E 135°27'0 0.1
2017-Oct-14 00:55N 34°38' E 135°27'0 0.0
2017-Oct-14 00:19N 34°38' E 135°27'0 0.1
2017-Oct-13 23:49N 34°38' E 135°27'0 0.1
2017-Oct-13 23:19N 34°38' E 135°27'0 0.0
2017-Oct-13 22:55N 34°38' E 135°27'1 2.9
2017-Oct-13 22:30N 34°39' E 135°26'3 5.8
2017-Oct-13 21:59N 34°38' E 135°23'0 0.1
2017-Oct-13 21:27N 34°37' E 135°23'0 0.0
2017-Oct-13 20:57N 34°37' E 135°23'0 0.0
2017-Oct-13 20:21N 34°37' E 135°23'0 0.0
2017-Oct-13 19:57N 34°37' E 135°23'0 0.0
2017-Oct-13 19:15N 34°37' E 135°23'0 0.0
2017-Oct-13 18:51N 34°37' E 135°23'0 0.0
2017-Oct-13 18:27N 34°37' E 135°23'0 0.0
2017-Oct-13 17:57N 34°37' E 135°23'0 0.0
2017-Oct-13 17:21N 34°37' E 135°23'0 0.0
2017-Oct-13 16:57N 34°37' E 135°23'0 0.0
2017-Oct-13 16:21N 34°37' E 135°23'0 0.0
2017-Oct-13 15:45N 34°37' E 135°23'0 0.0
2017-Oct-13 15:15N 34°37' E 135°23'0 0.0
2017-Oct-13 14:51N 34°37' E 135°23'0 0.0
2017-Oct-13 14:27N 34°37' E 135°23'0 0.0
2017-Oct-13 13:51N 34°37' E 135°23'0 0.0
2017-Oct-13 13:21N 34°37' E 135°23'0 0.0
2017-Oct-13 12:51N 34°37' E 135°23'0 0.0
2017-Oct-13 12:27N 34°37' E 135°23'0 0.0
2017-Oct-13 11:51N 34°37' E 135°23'0 0.0
2017-Oct-13 11:27N 34°37' E 135°23'0 0.0
2017-Oct-13 10:03N 34°37' E 135°23'0 0.0
2017-Oct-13 09:45N 34°37' E 135°23'0 0.0
2017-Oct-13 09:27N 34°37' E 135°23'0 0.0
2017-Oct-13 08:39N 34°37' E 135°23'0 0.0
2017-Oct-13 08:21N 34°37' E 135°23'0 0.0
2017-Oct-13 07:39N 34°37' E 135°23'0 0.0
2017-Oct-13 07:09N 34°37' E 135°23'0 0.0
2017-Oct-13 05:51N 34°37' E 135°23'0 0.0
2017-Oct-13 05:21N 34°37' E 135°23'0 0.0
2017-Oct-13 04:51N 34°37' E 135°23'0 0.0
2017-Oct-13 04:21N 34°37' E 135°23'0 0.0
2017-Oct-13 03:57N 34°37' E 135°23'0 0.0
2017-Oct-13 03:15N 34°37' E 135°23'0 0.0
2017-Oct-13 02:51N 34°37' E 135°23'0 0.0
2017-Oct-13 02:27N 34°37' E 135°23'0 0.0
2017-Oct-13 01:51N 34°37' E 135°23'0 0.0
2017-Oct-13 01:27N 34°37' E 135°23'0 0.0
2017-Oct-13 00:57N 34°37' E 135°23'0 0.0
2017-Oct-12 23:51N 34°37' E 135°23'0 0.0
2017-Oct-12 23:27N 34°37' E 135°23'0 0.0
2017-Oct-12 22:57N 34°37' E 135°23'0 0.0
2017-Oct-12 22:21N 34°37' E 135°23'0 0.0
2017-Oct-12 21:39N 34°37' E 135°23'0 0.0
2017-Oct-12 21:27N 34°37' E 135°23'0 0.0
2017-Oct-12 20:57N 34°37' E 135°23'0 0.0
2017-Oct-12 20:09N 34°37' E 135°23'0 0.0
2017-Oct-12 19:57N 34°37' E 135°23'0 0.0
2017-Oct-12 19:27N 34°37' E 135°23'0 0.0
2017-Oct-12 18:57N 34°37' E 135°23'0 0.0
2017-Oct-12 18:27N 34°37' E 135°23'1 1.2
2017-Oct-12 18:00N 34°37' E 135°22'4 8.1
2017-Oct-12 17:30N 34°34' E 135°19'5 9.5
2017-Oct-12 17:00N 34°31' E 135°15'5 9.4
2017-Oct-12 16:30N 34°27' E 135°11'5 9.6
2017-Oct-12 16:00N 34°24' E 135°07'510.0
2017-Oct-12 15:28N 34°20' E 135°03'5 9.5
2017-Oct-12 14:59N 34°16' E 134°59'510.3
2017-Oct-12 14:30N 34°11' E 135°00'611.2
2017-Oct-12 14:00N 34°06' E 135°01'510.6
2017-Oct-12 13:30N 34°01' E 135°01'  

Dump ship's entire track history